sensor_id;sensor_type;location;lat;lon;timestamp;pressure;altitude;pressure_sealevel;temperature;humidity
68634;BME280;55625;47.072;22.192;2022-08-11T00:00:08;100063.50;;;16.80;66.72
68634;BME280;55625;47.072;22.192;2022-08-11T00:02:47;100065.53;;;16.88;66.51
68634;BME280;55625;47.072;22.192;2022-08-11T00:05:19;100071.91;;;16.83;68.42
68634;BME280;55625;47.072;22.192;2022-08-11T00:07:54;100068.31;;;16.73;70.08
68634;BME280;55625;47.072;22.192;2022-08-11T00:10:27;100073.94;;;16.68;70.68
68634;BME280;55625;47.072;22.192;2022-08-11T00:13:01;100070.66;;;16.51;69.87
68634;BME280;55625;47.072;22.192;2022-08-11T00:15:42;100074.16;;;16.55;68.96
68634;BME280;55625;47.072;22.192;2022-08-11T00:18:09;100067.13;;;16.56;68.01
68634;BME280;55625;47.072;22.192;2022-08-11T00:20:40;100060.13;;;16.57;68.40
68634;BME280;55625;47.072;22.192;2022-08-11T00:23:09;100071.41;;;16.61;68.01
68634;BME280;55625;47.072;22.192;2022-08-11T00:25:45;100067.56;;;16.64;67.62
68634;BME280;55625;47.072;22.192;2022-08-11T00:28:26;100072.00;;;16.65;67.86
68634;BME280;55625;47.072;22.192;2022-08-11T00:30:54;100061.72;;;16.58;68.66
68634;BME280;55625;47.072;22.192;2022-08-11T00:33:25;100070.31;;;16.58;67.47
68634;BME280;55625;47.072;22.192;2022-08-11T00:35:59;100061.53;;;16.62;67.64
68634;BME280;55625;47.072;22.192;2022-08-11T00:38:30;100068.25;;;16.59;68.04
68634;BME280;55625;47.072;22.192;2022-08-11T01:02:15;100049.38;;;16.43;69.00
68634;BME280;55625;47.072;22.192;2022-08-11T01:04:53;100047.31;;;16.43;70.13
68634;BME280;55625;47.072;22.192;2022-08-11T01:16:52;100040.91;;;16.49;72.41
68634;BME280;55625;47.072;22.192;2022-08-11T01:28:47;100043.84;;;16.06;76.02
68634;BME280;55625;47.072;22.192;2022-08-11T01:44:20;100052.59;;;15.42;80.21
68634;BME280;55625;47.072;22.192;2022-08-11T01:50:53;100058.47;;;15.20;81.14
68634;BME280;55625;47.072;22.192;2022-08-11T01:57:08;100061.69;;;15.04;82.67
68634;BME280;55625;47.072;22.192;2022-08-11T01:59:49;100051.50;;;14.94;81.88
68634;BME280;55625;47.072;22.192;2022-08-11T02:09:01;100053.06;;;14.77;83.32
68634;BME280;55625;47.072;22.192;2022-08-11T02:11:32;100056.25;;;14.79;83.25
68634;BME280;55625;47.072;22.192;2022-08-11T02:14:33;100055.47;;;14.78;82.86
68634;BME280;55625;47.072;22.192;2022-08-11T02:17:14;100047.38;;;14.77;82.57
68634;BME280;55625;47.072;22.192;2022-08-11T02:20:03;100051.97;;;14.74;83.08
68634;BME280;55625;47.072;22.192;2022-08-11T02:23:30;100044.00;;;14.69;82.66
68634;BME280;55625;47.072;22.192;2022-08-11T02:26:20;100048.13;;;14.68;82.51
68634;BME280;55625;47.072;22.192;2022-08-11T02:35:15;100047.56;;;14.33;84.26
68634;BME280;55625;47.072;22.192;2022-08-11T02:38:30;100044.03;;;14.20;84.56
68634;BME280;55625;47.072;22.192;2022-08-11T02:47:38;100052.69;;;14.07;84.95
68634;BME280;55625;47.072;22.192;2022-08-11T02:50:21;100059.66;;;14.06;85.59
68634;BME280;55625;47.072;22.192;2022-08-11T02:53:24;100053.88;;;14.19;84.57
68634;BME280;55625;47.072;22.192;2022-08-11T02:59:30;100053.53;;;14.17;85.49
68634;BME280;55625;47.072;22.192;2022-08-11T03:10:21;100053.22;;;14.15;86.87
68634;BME280;55625;47.072;22.192;2022-08-11T03:13:07;100046.56;;;14.18;86.02
68634;BME280;55625;47.072;22.192;2022-08-11T03:19:20;100051.66;;;14.23;85.73
68634;BME280;55625;47.072;22.192;2022-08-11T03:22:24;100049.59;;;14.23;86.08
68634;BME280;55625;47.072;22.192;2022-08-11T03:25:00;100045.63;;;14.21;85.66
68634;BME280;55625;47.072;22.192;2022-08-11T03:28:03;100048.16;;;14.19;85.71
68634;BME280;55625;47.072;22.192;2022-08-11T03:30:53;100049.75;;;14.20;85.83
68634;BME280;55625;47.072;22.192;2022-08-11T03:33:34;100049.75;;;14.20;85.65
68634;BME280;55625;47.072;22.192;2022-08-11T03:46:03;100045.63;;;14.21;87.90
68634;BME280;55625;47.072;22.192;2022-08-11T03:48:22;100047.06;;;14.25;87.85
68634;BME280;55625;47.072;22.192;2022-08-11T04:00:05;100044.16;;;14.47;88.19
68634;BME280;55625;47.072;22.192;2022-08-11T04:12:11;100044.34;;;14.80;86.80
68634;BME280;55625;47.072;22.192;2022-08-11T04:14:55;100050.69;;;14.94;86.24
68634;BME280;55625;47.072;22.192;2022-08-11T04:27:16;100046.69;;;15.64;82.71
68634;BME280;55625;47.072;22.192;2022-08-11T05:17:44;100045.31;;;18.74;66.10
68634;BME280;55625;47.072;22.192;2022-08-11T05:20:13;100038.50;;;18.98;65.79
68634;BME280;55625;47.072;22.192;2022-08-11T05:23:04;100040.09;;;19.19;64.69
68634;BME280;55625;47.072;22.192;2022-08-11T05:25:54;100041.63;;;19.40;63.20
68634;BME280;55625;47.072;22.192;2022-08-11T05:29:00;100041.47;;;19.49;63.69
68634;BME280;55625;47.072;22.192;2022-08-11T05:31:50;100042.78;;;19.74;62.87
68634;BME280;55625;47.072;22.192;2022-08-11T05:34:51;100040.94;;;20.03;61.70
68634;BME280;55625;47.072;22.192;2022-08-11T05:40:12;100041.81;;;20.14;59.14
68634;BME280;55625;47.072;22.192;2022-08-11T05:43:06;100037.16;;;20.23;59.15
68634;BME280;55625;47.072;22.192;2022-08-11T05:46:05;100039.84;;;20.32;58.62
68634;BME280;55625;47.072;22.192;2022-08-11T05:48:51;100032.34;;;20.45;59.48
68634;BME280;55625;47.072;22.192;2022-08-11T05:51:42;100039.03;;;20.63;57.68
68634;BME280;55625;47.072;22.192;2022-08-11T05:54:27;100038.31;;;20.79;58.24
68634;BME280;55625;47.072;22.192;2022-08-11T05:57:22;100045.47;;;20.95;59.14
68634;BME280;55625;47.072;22.192;2022-08-11T06:00:05;100035.13;;;21.25;57.93
68634;BME280;55625;47.072;22.192;2022-08-11T06:03:08;100035.66;;;21.29;56.62
68634;BME280;55625;47.072;22.192;2022-08-11T06:05:39;100033.59;;;21.47;57.35
68634;BME280;55625;47.072;22.192;2022-08-11T06:08:09;100035.97;;;21.59;56.68
68634;BME280;55625;47.072;22.192;2022-08-11T06:10:38;100037.81;;;21.68;56.49
68634;BME280;55625;47.072;22.192;2022-08-11T06:13:07;100033.13;;;21.76;55.73
68634;BME280;55625;47.072;22.192;2022-08-11T06:15:45;100032.59;;;21.94;56.08
68634;BME280;55625;47.072;22.192;2022-08-11T06:18:12;100031.06;;;22.05;54.86
68634;BME280;55625;47.072;22.192;2022-08-11T06:20:54;100025.75;;;22.31;53.23
68634;BME280;55625;47.072;22.192;2022-08-11T06:23:22;100025.25;;;22.21;53.41
68634;BME280;55625;47.072;22.192;2022-08-11T06:25:51;100017.88;;;22.37;53.11
68634;BME280;55625;47.072;22.192;2022-08-11T06:28:18;100031.03;;;22.38;53.23
68634;BME280;55625;47.072;22.192;2022-08-11T06:30:48;100023.59;;;22.59;52.95
68634;BME280;55625;47.072;22.192;2022-08-11T06:33:38;100022.47;;;22.79;51.56
68634;BME280;55625;47.072;22.192;2022-08-11T06:36:43;100021.13;;;22.97;51.06
68634;BME280;55625;47.072;22.192;2022-08-11T06:39:51;100028.41;;;23.15;51.04
68634;BME280;55625;47.072;22.192;2022-08-11T06:43:05;100022.75;;;23.39;50.68
68634;BME280;55625;47.072;22.192;2022-08-11T06:45:59;100028.50;;;23.45;49.11
68634;BME280;55625;47.072;22.192;2022-08-11T06:48:31;100025.56;;;23.56;48.81
68634;BME280;55625;47.072;22.192;2022-08-11T06:51:08;100023.00;;;23.41;48.62
68634;BME280;55625;47.072;22.192;2022-08-11T06:53:51;100023.72;;;23.53;50.01
68634;BME280;55625;47.072;22.192;2022-08-11T06:56:28;100021.91;;;23.85;48.37
68634;BME280;55625;47.072;22.192;2022-08-11T06:59:16;100030.00;;;23.98;48.13
68634;BME280;55625;47.072;22.192;2022-08-11T07:02:24;100027.94;;;24.23;47.56
68634;BME280;55625;47.072;22.192;2022-08-11T07:05:04;100023.56;;;24.41;46.87
68634;BME280;55625;47.072;22.192;2022-08-11T07:08:12;100022.38;;;24.55;46.18
68634;BME280;55625;47.072;22.192;2022-08-11T07:11:44;100015.16;;;24.86;47.40
68634;BME280;55625;47.072;22.192;2022-08-11T07:14:34;100017.22;;;25.10;45.72
68634;BME280;55625;47.072;22.192;2022-08-11T07:17:23;100017.75;;;24.90;45.48
68634;BME280;55625;47.072;22.192;2022-08-11T07:19:54;100020.72;;;24.60;47.37
68634;BME280;55625;47.072;22.192;2022-08-11T07:22:40;100004.00;;;24.90;44.04
68634;BME280;55625;47.072;22.192;2022-08-11T07:25:27;100013.53;;;25.10;44.55
68634;BME280;55625;47.072;22.192;2022-08-11T07:28:25;100010.56;;;25.34;45.06
68634;BME280;55625;47.072;22.192;2022-08-11T07:31:16;100015.19;;;25.61;43.97
68634;BME280;55625;47.072;22.192;2022-08-11T07:33:51;100015.03;;;25.54;42.45
68634;BME280;55625;47.072;22.192;2022-08-11T07:36:21;100015.03;;;25.35;42.37
68634;BME280;55625;47.072;22.192;2022-08-11T07:38:50;100015.84;;;25.54;42.25
68634;BME280;55625;47.072;22.192;2022-08-11T07:41:22;100014.28;;;25.16;42.45
68634;BME280;55625;47.072;22.192;2022-08-11T07:43:54;100015.22;;;25.43;42.41
68634;BME280;55625;47.072;22.192;2022-08-11T07:46:20;100011.44;;;25.48;42.32
68634;BME280;55625;47.072;22.192;2022-08-11T07:49:08;100006.56;;;25.75;42.71
68634;BME280;55625;47.072;22.192;2022-08-11T07:51:54;100000.50;;;25.54;43.30
68634;BME280;55625;47.072;22.192;2022-08-11T07:54:39;100000.84;;;25.50;41.79
68634;BME280;55625;47.072;22.192;2022-08-11T07:57:09;100002.44;;;25.64;42.73
68634;BME280;55625;47.072;22.192;2022-08-11T07:59:56;100000.38;;;25.97;40.96
68634;BME280;55625;47.072;22.192;2022-08-11T08:02:42;99990.69;;;26.21;42.27
68634;BME280;55625;47.072;22.192;2022-08-11T08:05:28;99995.72;;;26.07;40.91
68634;BME280;55625;47.072;22.192;2022-08-11T08:08:14;99980.59;;;26.09;40.29
68634;BME280;55625;47.072;22.192;2022-08-11T08:11:00;99985.78;;;26.29;40.28
68634;BME280;55625;47.072;22.192;2022-08-11T08:13:44;99989.00;;;26.12;41.28
68634;BME280;55625;47.072;22.192;2022-08-11T08:16:29;99989.06;;;26.39;39.73
68634;BME280;55625;47.072;22.192;2022-08-11T08:19:16;99981.22;;;26.60;40.20
68634;BME280;55625;47.072;22.192;2022-08-11T08:21:44;99980.00;;;26.55;40.40
68634;BME280;55625;47.072;22.192;2022-08-11T08:24:12;99974.19;;;26.82;41.01
68634;BME280;55625;47.072;22.192;2022-08-11T08:26:39;99984.38;;;27.02;38.06
68634;BME280;55625;47.072;22.192;2022-08-11T08:29:32;99972.72;;;27.02;37.49
68634;BME280;55625;47.072;22.192;2022-08-11T08:32:18;99969.59;;;27.00;38.65
68634;BME280;55625;47.072;22.192;2022-08-11T08:34:47;99963.28;;;27.09;37.45
68634;BME280;55625;47.072;22.192;2022-08-11T08:37:18;99968.44;;;26.89;39.53
68634;BME280;55625;47.072;22.192;2022-08-11T08:39:46;99970.13;;;26.98;38.08
68634;BME280;55625;47.072;22.192;2022-08-11T08:42:26;99964.50;;;27.13;36.83
68634;BME280;55625;47.072;22.192;2022-08-11T08:45:12;99971.06;;;27.40;38.87
68634;BME280;55625;47.072;22.192;2022-08-11T08:47:43;99972.53;;;27.68;37.03
68634;BME280;55625;47.072;22.192;2022-08-11T08:50:15;99965.84;;;28.01;37.68
68634;BME280;55625;47.072;22.192;2022-08-11T08:52:55;99962.34;;;28.24;36.49
68634;BME280;55625;47.072;22.192;2022-08-11T08:55:23;99967.66;;;28.25;37.03
68634;BME280;55625;47.072;22.192;2022-08-11T08:57:53;99966.59;;;28.43;36.58
68634;BME280;55625;47.072;22.192;2022-08-11T09:00:21;99967.69;;;28.61;36.10
68634;BME280;55625;47.072;22.192;2022-08-11T09:02:48;99962.03;;;28.56;35.95
68634;BME280;55625;47.072;22.192;2022-08-11T09:05:17;99947.31;;;28.76;35.36
68634;BME280;55625;47.072;22.192;2022-08-11T09:07:44;99951.25;;;28.79;36.23
68634;BME280;55625;47.072;22.192;2022-08-11T09:10:13;99942.13;;;29.26;35.61
68634;BME280;55625;47.072;22.192;2022-08-11T09:12:41;99946.50;;;29.48;33.97
68634;BME280;55625;47.072;22.192;2022-08-11T09:15:10;99944.56;;;29.07;32.98
68634;BME280;55625;47.072;22.192;2022-08-11T09:17:45;99949.59;;;28.63;36.13
68634;BME280;55625;47.072;22.192;2022-08-11T09:20:21;99942.34;;;28.85;34.80
68634;BME280;55625;47.072;22.192;2022-08-11T09:22:51;99942.78;;;28.96;35.56
68634;BME280;55625;47.072;22.192;2022-08-11T09:25:40;99943.41;;;28.74;33.06
68634;BME280;55625;47.072;22.192;2022-08-11T09:28:27;99930.53;;;28.69;34.61
68634;BME280;55625;47.072;22.192;2022-08-11T09:30:57;99933.50;;;28.41;35.33
68634;BME280;55625;47.072;22.192;2022-08-11T09:33:27;99927.44;;;28.75;35.73
68634;BME280;55625;47.072;22.192;2022-08-11T09:35:56;99916.94;;;28.72;35.44
68634;BME280;55625;47.072;22.192;2022-08-11T09:38:25;99926.91;;;28.20;35.86
68634;BME280;55625;47.072;22.192;2022-08-11T09:41:12;99921.53;;;28.88;34.46
68634;BME280;55625;47.072;22.192;2022-08-11T09:43:44;99920.84;;;29.11;34.39
68634;BME280;55625;47.072;22.192;2022-08-11T09:46:30;99917.66;;;29.52;34.78
68634;BME280;55625;47.072;22.192;2022-08-11T09:48:59;99916.28;;;29.68;34.05
68634;BME280;55625;47.072;22.192;2022-08-11T09:51:30;99917.09;;;29.84;33.00
68634;BME280;55625;47.072;22.192;2022-08-11T09:53:59;99917.06;;;29.61;33.87
68634;BME280;55625;47.072;22.192;2022-08-11T09:56:28;99909.84;;;29.62;34.21
68634;BME280;55625;47.072;22.192;2022-08-11T09:59:12;99910.25;;;29.66;33.83
68634;BME280;55625;47.072;22.192;2022-08-11T10:01:43;99903.88;;;30.06;33.41
68634;BME280;55625;47.072;22.192;2022-08-11T10:04:19;99901.69;;;30.37;32.72
68634;BME280;55625;47.072;22.192;2022-08-11T10:06:52;99898.56;;;29.82;32.89
68634;BME280;55625;47.072;22.192;2022-08-11T10:09:55;99907.34;;;29.00;35.03
68634;BME280;55625;47.072;22.192;2022-08-11T10:12:32;99900.00;;;29.14;33.42
68634;BME280;55625;47.072;22.192;2022-08-11T10:15:10;99910.75;;;29.34;33.93
68634;BME280;55625;47.072;22.192;2022-08-11T10:18:17;99901.28;;;29.95;33.42
68634;BME280;55625;47.072;22.192;2022-08-11T10:21:13;99908.28;;;29.61;34.55
68634;BME280;55625;47.072;22.192;2022-08-11T10:23:39;99901.72;;;30.07;33.13
68634;BME280;55625;47.072;22.192;2022-08-11T10:26:28;99899.13;;;29.95;32.20
68634;BME280;55625;47.072;22.192;2022-08-11T10:29:14;99911.88;;;30.06;33.93
68634;BME280;55625;47.072;22.192;2022-08-11T10:32:00;99895.03;;;28.94;33.99
68634;BME280;55625;47.072;22.192;2022-08-11T10:34:47;99889.75;;;28.49;35.05
68634;BME280;55625;47.072;22.192;2022-08-11T10:37:15;99888.59;;;28.52;33.66
68634;BME280;55625;47.072;22.192;2022-08-11T10:39:42;99884.22;;;28.73;34.91
68634;BME280;55625;47.072;22.192;2022-08-11T10:42:10;99890.19;;;28.60;34.95
68634;BME280;55625;47.072;22.192;2022-08-11T10:44:57;99884.91;;;28.51;33.90
68634;BME280;55625;47.072;22.192;2022-08-11T10:47:24;99887.41;;;28.19;34.92
68634;BME280;55625;47.072;22.192;2022-08-11T10:50:08;99875.66;;;28.75;33.73
68634;BME280;55625;47.072;22.192;2022-08-11T10:52:55;99879.28;;;28.25;35.55
68634;BME280;55625;47.072;22.192;2022-08-11T10:55:43;99870.22;;;28.80;33.33
68634;BME280;55625;47.072;22.192;2022-08-11T10:58:29;99876.25;;;29.25;34.10
68634;BME280;55625;47.072;22.192;2022-08-11T11:01:26;99880.25;;;29.74;33.00
68634;BME280;55625;47.072;22.192;2022-08-11T11:04:14;99876.91;;;29.54;31.03
68634;BME280;55625;47.072;22.192;2022-08-11T11:07:11;99870.00;;;29.36;32.44
68634;BME280;55625;47.072;22.192;2022-08-11T11:09:55;99875.72;;;29.65;31.69
68634;BME280;55625;47.072;22.192;2022-08-11T11:12:44;99864.63;;;29.86;32.10
68634;BME280;55625;47.072;22.192;2022-08-11T11:15:31;99852.91;;;29.86;32.13
68634;BME280;55625;47.072;22.192;2022-08-11T11:18:25;99866.94;;;29.65;30.76
68634;BME280;55625;47.072;22.192;2022-08-11T11:21:02;99857.88;;;28.58;33.62
68634;BME280;55625;47.072;22.192;2022-08-11T11:29:58;99864.47;;;28.23;33.36
68634;BME280;55625;47.072;22.192;2022-08-11T11:35:48;99845.06;;;29.35;32.54
68634;BME280;55625;47.072;22.192;2022-08-11T11:38:18;99842.38;;;29.53;32.54
68634;BME280;55625;47.072;22.192;2022-08-11T11:40:44;99846.00;;;29.15;31.95
68634;BME280;55625;47.072;22.192;2022-08-11T11:43:34;99837.63;;;28.60;30.99
68634;BME280;55625;47.072;22.192;2022-08-11T11:46:00;99836.06;;;29.11;31.10
68634;BME280;55625;47.072;22.192;2022-08-11T11:48:27;99845.97;;;29.00;32.44
68634;BME280;55625;47.072;22.192;2022-08-11T11:50:54;99836.47;;;29.22;30.90
68634;BME280;55625;47.072;22.192;2022-08-11T11:53:20;99832.94;;;28.57;30.75
68634;BME280;55625;47.072;22.192;2022-08-11T11:55:47;99827.75;;;28.06;33.13
68634;BME280;55625;47.072;22.192;2022-08-11T11:58:13;99835.44;;;27.89;33.02
68634;BME280;55625;47.072;22.192;2022-08-11T12:01:13;99828.66;;;27.65;33.36
68634;BME280;55625;47.072;22.192;2022-08-11T12:03:45;99825.19;;;27.53;33.67
68634;BME280;55625;47.072;22.192;2022-08-11T12:06:12;99829.06;;;27.48;34.55
68634;BME280;55625;47.072;22.192;2022-08-11T12:08:39;99822.25;;;27.95;33.03
68634;BME280;55625;47.072;22.192;2022-08-11T12:11:10;99809.91;;;28.46;32.92
68634;BME280;55625;47.072;22.192;2022-08-11T12:13:57;99816.94;;;29.02;31.40
68634;BME280;55625;47.072;22.192;2022-08-11T12:16:24;99810.88;;;28.85;31.90
68634;BME280;55625;47.072;22.192;2022-08-11T12:18:57;99809.41;;;28.70;31.91
68634;BME280;55625;47.072;22.192;2022-08-11T12:21:23;99812.13;;;28.61;32.20
68634;BME280;55625;47.072;22.192;2022-08-11T12:23:50;99809.50;;;28.86;32.23
68634;BME280;55625;47.072;22.192;2022-08-11T12:26:35;99805.81;;;29.00;32.20
68634;BME280;55625;47.072;22.192;2022-08-11T12:29:20;99797.31;;;29.41;32.84
68634;BME280;55625;47.072;22.192;2022-08-11T12:31:47;99794.94;;;29.31;30.92
68634;BME280;55625;47.072;22.192;2022-08-11T12:34:15;99799.88;;;29.59;31.14
68634;BME280;55625;47.072;22.192;2022-08-11T12:37:02;99797.72;;;29.75;29.47
68634;BME280;55625;47.072;22.192;2022-08-11T12:39:35;99790.91;;;29.50;29.66
68634;BME280;55625;47.072;22.192;2022-08-11T12:42:20;99784.28;;;29.49;29.00
68634;BME280;55625;47.072;22.192;2022-08-11T12:45:12;99790.50;;;29.61;29.89
68634;BME280;55625;47.072;22.192;2022-08-11T12:48:12;99790.13;;;29.72;29.76
68634;BME280;55625;47.072;22.192;2022-08-11T12:51:25;99784.81;;;30.01;29.25
68634;BME280;55625;47.072;22.192;2022-08-11T12:54:34;99776.84;;;29.71;28.96
68634;BME280;55625;47.072;22.192;2022-08-11T12:57:27;99780.75;;;29.66;30.41
68634;BME280;55625;47.072;22.192;2022-08-11T13:00:14;99784.78;;;28.87;30.55
68634;BME280;55625;47.072;22.192;2022-08-11T13:02:59;99786.34;;;28.44;30.08
68634;BME280;55625;47.072;22.192;2022-08-11T13:05:45;99784.94;;;28.81;30.78
68634;BME280;55625;47.072;22.192;2022-08-11T13:08:13;99789.16;;;28.65;30.55
68634;BME280;55625;47.072;22.192;2022-08-11T13:10:43;99785.91;;;28.84;31.17
68634;BME280;55625;47.072;22.192;2022-08-11T13:13:29;99780.31;;;29.01;30.12
68634;BME280;55625;47.072;22.192;2022-08-11T13:15:56;99782.25;;;29.06;31.53
68634;BME280;55625;47.072;22.192;2022-08-11T13:18:22;99769.78;;;29.05;29.54
68634;BME280;55625;47.072;22.192;2022-08-11T13:20:53;99766.97;;;28.77;29.67
68634;BME280;55625;47.072;22.192;2022-08-11T13:23:21;99765.50;;;28.40;30.42
68634;BME280;55625;47.072;22.192;2022-08-11T13:25:48;99767.22;;;28.35;31.10
68634;BME280;55625;47.072;22.192;2022-08-11T13:28:17;99759.53;;;28.61;31.13
68634;BME280;55625;47.072;22.192;2022-08-11T13:30:48;99762.88;;;28.72;30.04
68634;BME280;55625;47.072;22.192;2022-08-11T13:33:42;99759.19;;;28.21;30.93
68634;BME280;55625;47.072;22.192;2022-08-11T13:36:10;99763.28;;;27.89;32.05
68634;BME280;55625;47.072;22.192;2022-08-11T13:38:39;99760.31;;;27.81;31.53
68634;BME280;55625;47.072;22.192;2022-08-11T13:41:07;99759.16;;;27.84;31.29
68634;BME280;55625;47.072;22.192;2022-08-11T13:43:54;99758.78;;;27.60;31.88
68634;BME280;55625;47.072;22.192;2022-08-11T13:46:22;99757.97;;;27.31;32.71
68634;BME280;55625;47.072;22.192;2022-08-11T13:48:51;99753.41;;;27.22;33.18
68634;BME280;55625;47.072;22.192;2022-08-11T13:51:19;99753.19;;;27.20;33.35
68634;BME280;55625;47.072;22.192;2022-08-11T13:54:11;99750.19;;;26.91;33.40
68634;BME280;55625;47.072;22.192;2022-08-11T13:56:45;99748.72;;;26.98;33.32
68634;BME280;55625;47.072;22.192;2022-08-11T13:59:14;99743.50;;;26.83;33.53
68634;BME280;55625;47.072;22.192;2022-08-11T14:01:50;99737.91;;;26.65;33.84
68634;BME280;55625;47.072;22.192;2022-08-11T14:04:37;99746.69;;;27.06;33.76
68634;BME280;55625;47.072;22.192;2022-08-11T14:07:10;99730.84;;;27.43;33.18
68634;BME280;55625;47.072;22.192;2022-08-11T14:09:41;99736.19;;;27.81;31.69
68634;BME280;55625;47.072;22.192;2022-08-11T14:12:26;99734.53;;;27.93;31.89
68634;BME280;55625;47.072;22.192;2022-08-11T14:15:28;99727.97;;;28.08;30.75
68634;BME280;55625;47.072;22.192;2022-08-11T14:18:12;99734.97;;;28.05;30.36
68634;BME280;55625;47.072;22.192;2022-08-11T14:20:42;99730.44;;;27.96;31.15
68634;BME280;55625;47.072;22.192;2022-08-11T14:23:44;99727.31;;;27.94;29.33
68634;BME280;55625;47.072;22.192;2022-08-11T14:26:13;99725.44;;;28.04;29.64
68634;BME280;55625;47.072;22.192;2022-08-11T14:29:06;99728.09;;;27.95;30.04
68634;BME280;55625;47.072;22.192;2022-08-11T14:31:37;99733.06;;;27.79;30.96
68634;BME280;55625;47.072;22.192;2022-08-11T14:34:06;99733.00;;;27.22;32.24
68634;BME280;55625;47.072;22.192;2022-08-11T14:36:39;99719.59;;;27.19;31.27
68634;BME280;55625;47.072;22.192;2022-08-11T14:39:40;99731.47;;;27.00;30.91
68634;BME280;55625;47.072;22.192;2022-08-11T14:42:09;99724.06;;;26.78;31.80
68634;BME280;55625;47.072;22.192;2022-08-11T14:45:02;99722.56;;;26.85;31.33
68634;BME280;55625;47.072;22.192;2022-08-11T14:47:52;99720.00;;;26.81;31.92
68634;BME280;55625;47.072;22.192;2022-08-11T14:50:26;99720.03;;;26.47;33.77
68634;BME280;55625;47.072;22.192;2022-08-11T14:53:05;99715.00;;;26.48;33.60
68634;BME280;55625;47.072;22.192;2022-08-11T14:55:41;99724.44;;;26.27;34.25
68634;BME280;55625;47.072;22.192;2022-08-11T14:58:29;99723.59;;;26.06;33.94
68634;BME280;55625;47.072;22.192;2022-08-11T15:00:57;99721.34;;;26.12;33.69
68634;BME280;55625;47.072;22.192;2022-08-11T15:03:27;99721.56;;;26.14;33.75
68634;BME280;55625;47.072;22.192;2022-08-11T15:05:57;99719.97;;;26.26;33.63
68634;BME280;55625;47.072;22.192;2022-08-11T15:08:33;99712.09;;;26.48;32.94
68634;BME280;55625;47.072;22.192;2022-08-11T15:11:24;99707.50;;;26.73;32.84
68634;BME280;55625;47.072;22.192;2022-08-11T15:14:10;99706.00;;;26.80;33.91
68634;BME280;55625;47.072;22.192;2022-08-11T15:16:40;99697.94;;;27.07;31.90
68634;BME280;55625;47.072;22.192;2022-08-11T15:19:29;99707.63;;;26.88;32.55
68634;BME280;55625;47.072;22.192;2022-08-11T15:21:56;99708.00;;;26.85;32.48
68634;BME280;55625;47.072;22.192;2022-08-11T15:24:41;99706.22;;;26.82;30.95
68634;BME280;55625;47.072;22.192;2022-08-11T15:27:19;99698.69;;;26.66;31.51
68634;BME280;55625;47.072;22.192;2022-08-11T15:30:06;99702.19;;;26.64;32.05
68634;BME280;55625;47.072;22.192;2022-08-11T15:32:53;99693.34;;;26.56;31.53
68634;BME280;55625;47.072;22.192;2022-08-11T15:35:38;99700.09;;;26.51;31.85
68634;BME280;55625;47.072;22.192;2022-08-11T15:38:23;99696.53;;;26.45;31.80
68634;BME280;55625;47.072;22.192;2022-08-11T15:40:51;99694.19;;;26.44;32.63
68634;BME280;55625;47.072;22.192;2022-08-11T15:43:44;99687.31;;;26.54;32.86
68634;BME280;55625;47.072;22.192;2022-08-11T15:46:46;99677.09;;;26.61;31.28
68634;BME280;55625;47.072;22.192;2022-08-11T15:49:21;99686.34;;;26.73;32.05
68634;BME280;55625;47.072;22.192;2022-08-11T15:52:09;99679.44;;;26.83;30.36
68634;BME280;55625;47.072;22.192;2022-08-11T15:54:40;99672.69;;;26.88;32.39
68634;BME280;55625;47.072;22.192;2022-08-11T15:57:09;99687.41;;;26.83;30.75
68634;BME280;55625;47.072;22.192;2022-08-11T16:00:00;99681.88;;;26.72;31.46
68634;BME280;55625;47.072;22.192;2022-08-11T16:02:48;99680.16;;;26.76;30.86
68634;BME280;55625;47.072;22.192;2022-08-11T16:05:16;99679.53;;;26.70;31.90
68634;BME280;55625;47.072;22.192;2022-08-11T16:07:44;99686.19;;;26.57;32.36
68634;BME280;55625;47.072;22.192;2022-08-11T16:10:15;99682.00;;;26.32;32.25
68634;BME280;55625;47.072;22.192;2022-08-11T16:15:37;99684.53;;;26.15;32.30
68634;BME280;55625;47.072;22.192;2022-08-11T16:18:27;99693.03;;;25.99;33.19
68634;BME280;55625;47.072;22.192;2022-08-11T16:21:21;99690.47;;;25.96;33.19
68634;BME280;55625;47.072;22.192;2022-08-11T16:23:53;99692.56;;;25.75;34.06
68634;BME280;55625;47.072;22.192;2022-08-11T16:26:22;99685.69;;;25.85;33.96
68634;BME280;55625;47.072;22.192;2022-08-11T16:28:55;99690.31;;;25.81;33.69
68634;BME280;55625;47.072;22.192;2022-08-11T16:31:23;99683.25;;;25.76;33.61
68634;BME280;55625;47.072;22.192;2022-08-11T16:33:51;99683.13;;;25.68;34.66
68634;BME280;55625;47.072;22.192;2022-08-11T16:36:23;99681.88;;;25.64;34.86
68634;BME280;55625;47.072;22.192;2022-08-11T16:39:11;99678.53;;;25.60;35.15
68634;BME280;55625;47.072;22.192;2022-08-11T16:41:39;99679.00;;;25.51;35.31
68634;BME280;55625;47.072;22.192;2022-08-11T16:44:26;99680.91;;;25.48;35.12
68634;BME280;55625;47.072;22.192;2022-08-11T16:47:15;99677.09;;;25.53;35.22
68634;BME280;55625;47.072;22.192;2022-08-11T16:49:52;99682.47;;;25.49;35.53
68634;BME280;55625;47.072;22.192;2022-08-11T16:52:22;99685.50;;;25.44;35.69
68634;BME280;55625;47.072;22.192;2022-08-11T16:54:49;99685.56;;;25.38;36.02
68634;BME280;55625;47.072;22.192;2022-08-11T16:57:24;99672.50;;;25.31;35.66
68634;BME280;55625;47.072;22.192;2022-08-11T17:00:15;99683.91;;;25.29;36.07
68634;BME280;55625;47.072;22.192;2022-08-11T17:02:50;99688.16;;;25.28;36.15
68634;BME280;55625;47.072;22.192;2022-08-11T17:05:40;99679.53;;;25.23;35.98